sensor_id;sensor_type;location;lat;lon;timestamp;P1;durP1;ratioP1;P2;durP2;ratioP2
6860;SDS011;3469;47.060;15.460;2023-04-24T00:00:39;5.73;;;4.90;;
6860;SDS011;3469;47.060;15.460;2023-04-24T00:03:08;6.67;;;5.10;;
6860;SDS011;3469;47.060;15.460;2023-04-24T00:05:36;5.30;;;4.70;;
6860;SDS011;3469;47.060;15.460;2023-04-24T00:08:07;8.60;;;5.57;;
6860;SDS011;3469;47.060;15.460;2023-04-24T00:10:35;6.57;;;5.87;;
6860;SDS011;3469;47.060;15.460;2023-04-24T00:13:04;5.10;;;4.13;;
6860;SDS011;3469;47.060;15.460;2023-04-24T00:15:33;6.83;;;5.03;;
6860;SDS011;3469;47.060;15.460;2023-04-24T00:18:01;6.37;;;5.20;;
6860;SDS011;3469;47.060;15.460;2023-04-24T00:20:30;5.93;;;4.90;;
6860;SDS011;3469;47.060;15.460;2023-04-24T00:22:59;5.27;;;4.57;;
6860;SDS011;3469;47.060;15.460;2023-04-24T00:25:27;9.60;;;4.90;;
6860;SDS011;3469;47.060;15.460;2023-04-24T00:27:55;6.87;;;5.23;;
6860;SDS011;3469;47.060;15.460;2023-04-24T00:30:24;5.33;;;3.93;;
6860;SDS011;3469;47.060;15.460;2023-04-24T00:32:53;5.57;;;5.03;;
6860;SDS011;3469;47.060;15.460;2023-04-24T00:35:23;6.93;;;5.30;;
6860;SDS011;3469;47.060;15.460;2023-04-24T00:37:51;5.43;;;4.23;;
6860;SDS011;3469;47.060;15.460;2023-04-24T00:40:19;4.40;;;3.90;;
6860;SDS011;3469;47.060;15.460;2023-04-24T00:42:48;4.80;;;4.00;;
6860;SDS011;3469;47.060;15.460;2023-04-24T00:45:16;4.63;;;4.23;;
6860;SDS011;3469;47.060;15.460;2023-04-24T00:47:45;6.90;;;4.20;;
6860;SDS011;3469;47.060;15.460;2023-04-24T00:50:15;5.13;;;4.17;;
6860;SDS011;3469;47.060;15.460;2023-04-24T00:52:45;5.10;;;4.20;;
6860;SDS011;3469;47.060;15.460;2023-04-24T00:55:14;6.37;;;5.23;;
6860;SDS011;3469;47.060;15.460;2023-04-24T00:57:42;6.27;;;4.43;;
6860;SDS011;3469;47.060;15.460;2023-04-24T01:00:11;5.63;;;4.40;;
6860;SDS011;3469;47.060;15.460;2023-04-24T01:02:41;7.13;;;4.53;;
6860;SDS011;3469;47.060;15.460;2023-04-24T01:05:12;6.10;;;4.30;;
6860;SDS011;3469;47.060;15.460;2023-04-24T01:07:44;4.73;;;4.23;;
6860;SDS011;3469;47.060;15.460;2023-04-24T01:10:15;5.70;;;4.53;;
6860;SDS011;3469;47.060;15.460;2023-04-24T01:12:45;5.83;;;4.47;;
6860;SDS011;3469;47.060;15.460;2023-04-24T01:15:14;5.43;;;4.70;;
6860;SDS011;3469;47.060;15.460;2023-04-24T01:17:42;5.63;;;5.03;;
6860;SDS011;3469;47.060;15.460;2023-04-24T01:20:10;6.50;;;5.23;;
6860;SDS011;3469;47.060;15.460;2023-04-24T01:22:41;6.33;;;4.70;;
6860;SDS011;3469;47.060;15.460;2023-04-24T01:25:10;5.70;;;5.10;;
6860;SDS011;3469;47.060;15.460;2023-04-24T01:27:38;6.07;;;4.80;;
6860;SDS011;3469;47.060;15.460;2023-04-24T01:30:07;6.40;;;4.77;;
6860;SDS011;3469;47.060;15.460;2023-04-24T01:32:36;6.93;;;5.50;;
6860;SDS011;3469;47.060;15.460;2023-04-24T01:35:05;5.87;;;5.10;;
6860;SDS011;3469;47.060;15.460;2023-04-24T01:37:35;5.87;;;4.90;;
6860;SDS011;3469;47.060;15.460;2023-04-24T01:40:06;6.70;;;4.80;;
6860;SDS011;3469;47.060;15.460;2023-04-24T01:42:35;5.27;;;4.73;;
6860;SDS011;3469;47.060;15.460;2023-04-24T01:45:04;6.90;;;5.10;;
6860;SDS011;3469;47.060;15.460;2023-04-24T01:47:33;5.70;;;4.50;;
6860;SDS011;3469;47.060;15.460;2023-04-24T01:50:02;5.13;;;4.60;;
6860;SDS011;3469;47.060;15.460;2023-04-24T01:52:31;5.57;;;4.97;;
6860;SDS011;3469;47.060;15.460;2023-04-24T01:55:00;5.90;;;5.23;;
6860;SDS011;3469;47.060;15.460;2023-04-24T01:57:30;6.13;;;5.10;;
6860;SDS011;3469;47.060;15.460;2023-04-24T01:59:59;6.47;;;4.70;;
6860;SDS011;3469;47.060;15.460;2023-04-24T02:02:28;5.60;;;4.70;;
6860;SDS011;3469;47.060;15.460;2023-04-24T02:04:57;7.43;;;5.33;;
6860;SDS011;3469;47.060;15.460;2023-04-24T02:07:25;7.33;;;5.53;;
6860;SDS011;3469;47.060;15.460;2023-04-24T02:09:53;7.67;;;5.83;;
6860;SDS011;3469;47.060;15.460;2023-04-24T02:12:22;6.33;;;5.27;;
6860;SDS011;3469;47.060;15.460;2023-04-24T02:14:52;8.60;;;5.23;;
6860;SDS011;3469;47.060;15.460;2023-04-24T02:17:20;7.10;;;5.40;;
6860;SDS011;3469;47.060;15.460;2023-04-24T02:19:49;6.07;;;5.03;;
6860;SDS011;3469;47.060;15.460;2023-04-24T02:22:17;6.73;;;5.73;;
6860;SDS011;3469;47.060;15.460;2023-04-24T02:24:46;7.53;;;5.00;;
6860;SDS011;3469;47.060;15.460;2023-04-24T02:27:15;10.17;;;6.20;;
6860;SDS011;3469;47.060;15.460;2023-04-24T02:29:43;9.33;;;5.97;;
6860;SDS011;3469;47.060;15.460;2023-04-24T02:32:13;10.23;;;6.07;;
6860;SDS011;3469;47.060;15.460;2023-04-24T02:34:42;6.33;;;4.97;;
6860;SDS011;3469;47.060;15.460;2023-04-24T02:37:11;9.50;;;5.33;;
6860;SDS011;3469;47.060;15.460;2023-04-24T02:39:40;8.47;;;6.60;;
6860;SDS011;3469;47.060;15.460;2023-04-24T02:42:08;7.90;;;6.37;;
6860;SDS011;3469;47.060;15.460;2023-04-24T02:44:37;8.53;;;6.77;;
6860;SDS011;3469;47.060;15.460;2023-04-24T02:47:05;5.80;;;5.20;;
6860;SDS011;3469;47.060;15.460;2023-04-24T02:49:35;7.33;;;4.90;;
6860;SDS011;3469;47.060;15.460;2023-04-24T02:52:04;7.50;;;6.27;;
6860;SDS011;3469;47.060;15.460;2023-04-24T02:54:32;7.20;;;5.33;;
6860;SDS011;3469;47.060;15.460;2023-04-24T02:57:00;5.97;;;4.83;;
6860;SDS011;3469;47.060;15.460;2023-04-24T02:59:29;8.20;;;5.33;;
6860;SDS011;3469;47.060;15.460;2023-04-24T03:01:58;7.10;;;5.10;;
6860;SDS011;3469;47.060;15.460;2023-04-24T03:04:26;6.70;;;5.10;;
6860;SDS011;3469;47.060;15.460;2023-04-24T03:06:56;7.20;;;5.07;;
6860;SDS011;3469;47.060;15.460;2023-04-24T03:09:25;6.40;;;5.43;;
6860;SDS011;3469;47.060;15.460;2023-04-24T03:11:54;6.50;;;5.67;;
6860;SDS011;3469;47.060;15.460;2023-04-24T03:14:24;7.23;;;4.97;;
6860;SDS011;3469;47.060;15.460;2023-04-24T03:16:52;7.40;;;5.20;;
6860;SDS011;3469;47.060;15.460;2023-04-24T03:19:20;10.27;;;7.27;;
6860;SDS011;3469;47.060;15.460;2023-04-24T03:22:04;9.83;;;6.73;;
6860;SDS011;3469;47.060;15.460;2023-04-24T03:24:33;5.63;;;5.07;;
6860;SDS011;3469;47.060;15.460;2023-04-24T03:27:02;7.80;;;5.70;;
6860;SDS011;3469;47.060;15.460;2023-04-24T03:29:49;7.10;;;5.67;;
6860;SDS011;3469;47.060;15.460;2023-04-24T03:32:21;7.40;;;5.90;;
6860;SDS011;3469;47.060;15.460;2023-04-24T03:34:51;8.40;;;6.07;;
6860;SDS011;3469;47.060;15.460;2023-04-24T03:37:21;8.33;;;6.17;;
6860;SDS011;3469;47.060;15.460;2023-04-24T03:40:00;7.50;;;5.50;;
6860;SDS011;3469;47.060;15.460;2023-04-24T03:42:29;6.47;;;5.77;;
6860;SDS011;3469;47.060;15.460;2023-04-24T03:44:58;9.00;;;6.40;;
6860;SDS011;3469;47.060;15.460;2023-04-24T03:47:31;6.20;;;5.60;;
6860;SDS011;3469;47.060;15.460;2023-04-24T03:50:01;7.33;;;6.07;;
6860;SDS011;3469;47.060;15.460;2023-04-24T03:52:31;7.57;;;5.97;;
6860;SDS011;3469;47.060;15.460;2023-04-24T03:55:00;8.60;;;6.47;;
6860;SDS011;3469;47.060;15.460;2023-04-24T03:57:30;7.60;;;5.30;;
6860;SDS011;3469;47.060;15.460;2023-04-24T04:00:10;7.80;;;5.90;;
6860;SDS011;3469;47.060;15.460;2023-04-24T04:02:44;7.60;;;5.93;;
6860;SDS011;3469;47.060;15.460;2023-04-24T04:05:13;8.20;;;5.83;;
6860;SDS011;3469;47.060;15.460;2023-04-24T04:07:46;9.80;;;6.30;;
6860;SDS011;3469;47.060;15.460;2023-04-24T04:10:15;10.77;;;5.80;;
6860;SDS011;3469;47.060;15.460;2023-04-24T04:12:44;8.07;;;6.30;;
6860;SDS011;3469;47.060;15.460;2023-04-24T04:15:13;8.57;;;6.47;;
6860;SDS011;3469;47.060;15.460;2023-04-24T04:17:41;8.47;;;6.40;;
6860;SDS011;3469;47.060;15.460;2023-04-24T04:20:10;9.10;;;6.50;;
6860;SDS011;3469;47.060;15.460;2023-04-24T04:22:39;10.13;;;6.67;;
6860;SDS011;3469;47.060;15.460;2023-04-24T04:25:16;9.03;;;6.83;;
6860;SDS011;3469;47.060;15.460;2023-04-24T04:27:46;7.23;;;6.13;;
6860;SDS011;3469;47.060;15.460;2023-04-24T04:30:15;11.23;;;6.70;;
6860;SDS011;3469;47.060;15.460;2023-04-24T04:32:54;11.77;;;6.97;;
6860;SDS011;3469;47.060;15.460;2023-04-24T04:35:24;9.10;;;6.97;;
6860;SDS011;3469;47.060;15.460;2023-04-24T04:37:53;7.63;;;6.40;;
6860;SDS011;3469;47.060;15.460;2023-04-24T04:40:51;8.13;;;6.93;;
6860;SDS011;3469;47.060;15.460;2023-04-24T04:43:23;8.70;;;6.27;;
6860;SDS011;3469;47.060;15.460;2023-04-24T04:45:55;8.80;;;7.13;;
6860;SDS011;3469;47.060;15.460;2023-04-24T04:48:37;9.27;;;6.53;;
6860;SDS011;3469;47.060;15.460;2023-04-24T04:51:08;9.50;;;7.73;;
6860;SDS011;3469;47.060;15.460;2023-04-24T04:53:37;11.73;;;8.13;;
6860;SDS011;3469;47.060;15.460;2023-04-24T04:56:07;13.53;;;7.90;;
6860;SDS011;3469;47.060;15.460;2023-04-24T04:58:39;13.83;;;8.10;;
6860;SDS011;3469;47.060;15.460;2023-04-24T05:01:11;11.27;;;7.43;;
6860;SDS011;3469;47.060;15.460;2023-04-24T05:03:43;9.80;;;7.40;;
6860;SDS011;3469;47.060;15.460;2023-04-24T05:06:16;8.70;;;6.60;;
6860;SDS011;3469;47.060;15.460;2023-04-24T05:08:48;9.17;;;7.50;;
6860;SDS011;3469;47.060;15.460;2023-04-24T05:11:45;12.03;;;6.87;;
6860;SDS011;3469;47.060;15.460;2023-04-24T05:14:13;8.13;;;6.77;;
6860;SDS011;3469;47.060;15.460;2023-04-24T05:16:44;10.17;;;7.60;;
6860;SDS011;3469;47.060;15.460;2023-04-24T05:19:14;8.67;;;7.20;;
6860;SDS011;3469;47.060;15.460;2023-04-24T05:21:45;11.43;;;8.03;;
6860;SDS011;3469;47.060;15.460;2023-04-24T05:24:14;8.13;;;6.93;;
6860;SDS011;3469;47.060;15.460;2023-04-24T05:26:45;10.43;;;7.57;;
6860;SDS011;3469;47.060;15.460;2023-04-24T05:29:24;10.97;;;6.50;;
6860;SDS011;3469;47.060;15.460;2023-04-24T05:31:55;9.97;;;8.23;;
6860;SDS011;3469;47.060;15.460;2023-04-24T05:34:57;10.80;;;7.43;;
6860;SDS011;3469;47.060;15.460;2023-04-24T05:37:29;10.67;;;6.67;;
6860;SDS011;3469;47.060;15.460;2023-04-24T05:40:01;17.40;;;8.50;;
6860;SDS011;3469;47.060;15.460;2023-04-24T05:42:59;13.57;;;8.40;;
6860;SDS011;3469;47.060;15.460;2023-04-24T05:45:32;17.83;;;8.77;;
6860;SDS011;3469;47.060;15.460;2023-04-24T05:48:19;10.80;;;7.53;;
6860;SDS011;3469;47.060;15.460;2023-04-24T05:51:05;12.73;;;8.80;;
6860;SDS011;3469;47.060;15.460;2023-04-24T05:53:34;10.07;;;8.53;;
6860;SDS011;3469;47.060;15.460;2023-04-24T05:56:05;12.70;;;8.90;;
6860;SDS011;3469;47.060;15.460;2023-04-24T05:58:39;10.00;;;8.83;;
6860;SDS011;3469;47.060;15.460;2023-04-24T06:01:13;17.30;;;8.73;;
6860;SDS011;3469;47.060;15.460;2023-04-24T06:03:54;11.00;;;9.27;;
6860;SDS011;3469;47.060;15.460;2023-04-24T06:06:24;11.53;;;9.10;;
6860;SDS011;3469;47.060;15.460;2023-04-24T06:08:57;12.20;;;9.03;;
6860;SDS011;3469;47.060;15.460;2023-04-24T06:11:27;11.70;;;9.23;;
6860;SDS011;3469;47.060;15.460;2023-04-24T06:13:59;12.30;;;8.90;;
6860;SDS011;3469;47.060;15.460;2023-04-24T06:16:37;16.93;;;11.63;;
6860;SDS011;3469;47.060;15.460;2023-04-24T06:19:18;12.40;;;9.30;;
6860;SDS011;3469;47.060;15.460;2023-04-24T06:21:47;11.90;;;8.60;;
6860;SDS011;3469;47.060;15.460;2023-04-24T06:24:15;13.70;;;9.20;;
6860;SDS011;3469;47.060;15.460;2023-04-24T06:26:44;11.70;;;8.30;;
6860;SDS011;3469;47.060;15.460;2023-04-24T06:29:14;13.10;;;9.27;;
6860;SDS011;3469;47.060;15.460;2023-04-24T06:31:42;8.63;;;7.47;;
6860;SDS011;3469;47.060;15.460;2023-04-24T06:34:10;8.40;;;7.60;;
6860;SDS011;3469;47.060;15.460;2023-04-24T06:36:40;9.70;;;8.07;;
6860;SDS011;3469;47.060;15.460;2023-04-24T06:39:09;8.47;;;7.10;;
6860;SDS011;3469;47.060;15.460;2023-04-24T06:41:37;9.83;;;8.30;;
6860;SDS011;3469;47.060;15.460;2023-04-24T06:44:08;8.07;;;7.27;;
6860;SDS011;3469;47.060;15.460;2023-04-24T06:46:38;7.90;;;7.10;;
6860;SDS011;3469;47.060;15.460;2023-04-24T06:49:07;8.23;;;7.00;;
6860;SDS011;3469;47.060;15.460;2023-04-24T06:51:36;8.27;;;6.90;;
6860;SDS011;3469;47.060;15.460;2023-04-24T06:54:04;6.40;;;5.80;;
6860;SDS011;3469;47.060;15.460;2023-04-24T06:56:32;10.77;;;6.47;;
6860;SDS011;3469;47.060;15.460;2023-04-24T06:59:01;7.80;;;6.50;;
6860;SDS011;3469;47.060;15.460;2023-04-24T07:01:29;8.10;;;7.30;;
6860;SDS011;3469;47.060;15.460;2023-04-24T07:03:59;8.07;;;6.50;;
6860;SDS011;3469;47.060;15.460;2023-04-24T07:06:28;9.50;;;6.83;;
6860;SDS011;3469;47.060;15.460;2023-04-24T07:08:58;7.43;;;5.80;;
6860;SDS011;3469;47.060;15.460;2023-04-24T07:11:28;7.70;;;6.80;;
6860;SDS011;3469;47.060;15.460;2023-04-24T07:13:57;10.03;;;7.70;;
6860;SDS011;3469;47.060;15.460;2023-04-24T07:16:25;11.90;;;6.43;;
6860;SDS011;3469;47.060;15.460;2023-04-24T07:18:53;11.27;;;7.20;;
6860;SDS011;3469;47.060;15.460;2023-04-24T07:21:23;8.67;;;7.00;;
6860;SDS011;3469;47.060;15.460;2023-04-24T07:23:52;13.60;;;7.50;;
6860;SDS011;3469;47.060;15.460;2023-04-24T07:26:20;11.30;;;7.50;;
6860;SDS011;3469;47.060;15.460;2023-04-24T07:28:49;8.47;;;7.43;;
6860;SDS011;3469;47.060;15.460;2023-04-24T07:31:17;10.20;;;8.50;;
6860;SDS011;3469;47.060;15.460;2023-04-24T07:33:45;10.67;;;8.30;;
6860;SDS011;3469;47.060;15.460;2023-04-24T07:36:18;9.67;;;8.03;;
6860;SDS011;3469;47.060;15.460;2023-04-24T07:38:49;13.30;;;7.70;;
6860;SDS011;3469;47.060;15.460;2023-04-24T07:41:17;12.47;;;9.10;;
6860;SDS011;3469;47.060;15.460;2023-04-24T07:43:45;11.43;;;7.47;;
6860;SDS011;3469;47.060;15.460;2023-04-24T07:46:14;10.70;;;8.00;;
6860;SDS011;3469;47.060;15.460;2023-04-24T07:48:42;14.00;;;8.70;;
6860;SDS011;3469;47.060;15.460;2023-04-24T07:51:11;12.73;;;9.10;;
6860;SDS011;3469;47.060;15.460;2023-04-24T07:53:39;11.30;;;9.73;;
6860;SDS011;3469;47.060;15.460;2023-04-24T07:56:09;16.37;;;9.93;;
6860;SDS011;3469;47.060;15.460;2023-04-24T07:58:38;10.73;;;8.80;;
6860;SDS011;3469;47.060;15.460;2023-04-24T08:01:06;11.67;;;10.03;;
6860;SDS011;3469;47.060;15.460;2023-04-24T08:03:35;13.57;;;8.87;;
6860;SDS011;3469;47.060;15.460;2023-04-24T08:06:03;12.37;;;10.27;;
6860;SDS011;3469;47.060;15.460;2023-04-24T08:08:32;14.40;;;11.17;;
6860;SDS011;3469;47.060;15.460;2023-04-24T08:11:01;13.77;;;10.27;;
6860;SDS011;3469;47.060;15.460;2023-04-24T08:13:31;17.40;;;9.90;;
6860;SDS011;3469;47.060;15.460;2023-04-24T08:15:59;11.93;;;9.90;;
6860;SDS011;3469;47.060;15.460;2023-04-24T08:18:27;12.00;;;9.17;;
6860;SDS011;3469;47.060;15.460;2023-04-24T08:20:56;14.40;;;11.00;;
6860;SDS011;3469;47.060;15.460;2023-04-24T08:23:28;14.93;;;11.17;;
6860;SDS011;3469;47.060;15.460;2023-04-24T08:25:57;16.47;;;11.40;;
6860;SDS011;3469;47.060;15.460;2023-04-24T08:28:25;13.23;;;10.47;;
6860;SDS011;3469;47.060;15.460;2023-04-24T08:30:55;14.57;;;10.70;;
6860;SDS011;3469;47.060;15.460;2023-04-24T08:33:23;11.30;;;9.87;;
6860;SDS011;3469;47.060;15.460;2023-04-24T08:35:52;17.33;;;11.00;;
6860;SDS011;3469;47.060;15.460;2023-04-24T08:38:21;15.30;;;10.90;;
6860;SDS011;3469;47.060;15.460;2023-04-24T08:40:50;17.40;;;11.33;;
6860;SDS011;3469;47.060;15.460;2023-04-24T08:43:18;15.40;;;10.97;;
6860;SDS011;3469;47.060;15.460;2023-04-24T08:45:50;16.40;;;11.23;;
6860;SDS011;3469;47.060;15.460;2023-04-24T08:48:24;14.87;;;11.30;;
6860;SDS011;3469;47.060;15.460;2023-04-24T08:50:57;19.87;;;11.20;;
6860;SDS011;3469;47.060;15.460;2023-04-24T08:53:27;15.33;;;10.53;;
6860;SDS011;3469;47.060;15.460;2023-04-24T08:55:56;20.77;;;10.90;;
6860;SDS011;3469;47.060;15.460;2023-04-24T08:58:24;16.20;;;12.07;;
6860;SDS011;3469;47.060;15.460;2023-04-24T09:00:54;16.80;;;12.23;;
6860;SDS011;3469;47.060;15.460;2023-04-24T09:03:24;16.93;;;12.33;;
6860;SDS011;3469;47.060;15.460;2023-04-24T09:05:52;15.60;;;12.63;;
6860;SDS011;3469;47.060;15.460;2023-04-24T09:08:23;15.73;;;12.40;;
6860;SDS011;3469;47.060;15.460;2023-04-24T09:10:52;16.90;;;11.97;;
6860;SDS011;3469;47.060;15.460;2023-04-24T09:13:21;16.00;;;11.33;;
6860;SDS011;3469;47.060;15.460;2023-04-24T09:15:49;10.90;;;7.70;;
6860;SDS011;3469;47.060;15.460;2023-04-24T09:18:18;9.63;;;7.23;;
6860;SDS011;3469;47.060;15.460;2023-04-24T09:20:58;5.60;;;3.90;;
6860;SDS011;3469;47.060;15.460;2023-04-24T09:23:28;5.60;;;3.80;;
6860;SDS011;3469;47.060;15.460;2023-04-24T09:25:57;6.60;;;4.23;;
6860;SDS011;3469;47.060;15.460;2023-04-24T09:28:29;5.07;;;3.90;;
6860;SDS011;3469;47.060;15.460;2023-04-24T09:31:02;6.77;;;5.00;;
6860;SDS011;3469;47.060;15.460;2023-04-24T09:33:31;8.20;;;4.43;;
6860;SDS011;3469;47.060;15.460;2023-04-24T09:36:01;5.60;;;4.40;;
6860;SDS011;3469;47.060;15.460;2023-04-24T09:38:33;3.70;;;3.10;;
6860;SDS011;3469;47.060;15.460;2023-04-24T09:41:02;3.83;;;2.83;;
6860;SDS011;3469;47.060;15.460;2023-04-24T09:43:32;7.13;;;4.93;;
6860;SDS011;3469;47.060;15.460;2023-04-24T09:46:04;6.27;;;4.57;;
6860;SDS011;3469;47.060;15.460;2023-04-24T09:48:34;2.60;;;2.40;;
6860;SDS011;3469;47.060;15.460;2023-04-24T09:51:05;4.70;;;3.40;;
6860;SDS011;3469;47.060;15.460;2023-04-24T09:53:37;3.80;;;2.90;;
6860;SDS011;3469;47.060;15.460;2023-04-24T09:56:11;4.00;;;2.80;;
6860;SDS011;3469;47.060;15.460;2023-04-24T09:58:39;3.87;;;3.43;;
6860;SDS011;3469;47.060;15.460;2023-04-24T10:01:08;4.90;;;3.30;;
6860;SDS011;3469;47.060;15.460;2023-04-24T10:03:36;7.93;;;3.63;;
6860;SDS011;3469;47.060;15.460;2023-04-24T10:06:06;4.07;;;2.80;;
6860;SDS011;3469;47.060;15.460;2023-04-24T10:08:36;3.00;;;2.50;;
6860;SDS011;3469;47.060;15.460;2023-04-24T10:11:05;1.27;;;0.97;;
6860;SDS011;3469;47.060;15.460;2023-04-24T10:13:34;3.53;;;1.87;;
6860;SDS011;3469;47.060;15.460;2023-04-24T10:16:03;3.00;;;2.07;;
6860;SDS011;3469;47.060;15.460;2023-04-24T10:18:32;2.00;;;1.50;;
6860;SDS011;3469;47.060;15.460;2023-04-24T10:21:01;3.37;;;2.00;;
6860;SDS011;3469;47.060;15.460;2023-04-24T10:23:31;1.07;;;0.70;;
6860;SDS011;3469;47.060;15.460;2023-04-24T10:26:00;2.80;;;1.60;;
6860;SDS011;3469;47.060;15.460;2023-04-24T10:28:28;2.10;;;1.50;;
6860;SDS011;3469;47.060;15.460;2023-04-24T10:30:58;2.60;;;2.40;;
6860;SDS011;3469;47.060;15.460;2023-04-24T10:33:27;2.30;;;2.00;;
6860;SDS011;3469;47.060;15.460;2023-04-24T10:35:57;2.97;;;2.27;;
6860;SDS011;3469;47.060;15.460;2023-04-24T10:38:26;2.37;;;1.90;;
6860;SDS011;3469;47.060;15.460;2023-04-24T10:40:58;2.97;;;1.70;;
6860;SDS011;3469;47.060;15.460;2023-04-24T10:43:35;2.07;;;1.50;;
6860;SDS011;3469;47.060;15.460;2023-04-24T10:46:04;2.50;;;2.10;;
6860;SDS011;3469;47.060;15.460;2023-04-24T10:48:34;1.90;;;1.70;;
6860;SDS011;3469;47.060;15.460;2023-04-24T10:51:02;4.70;;;3.07;;
6860;SDS011;3469;47.060;15.460;2023-04-24T10:53:31;2.60;;;1.87;;
6860;SDS011;3469;47.060;15.460;2023-04-24T10:56:02;2.40;;;2.00;;
6860;SDS011;3469;47.060;15.460;2023-04-24T10:58:35;1.83;;;1.23;;
6860;SDS011;3469;47.060;15.460;2023-04-24T11:01:05;1.90;;;1.60;;
6860;SDS011;3469;47.060;15.460;2023-04-24T11:03:34;2.60;;;1.73;;
6860;SDS011;3469;47.060;15.460;2023-04-24T11:06:04;3.17;;;1.80;;
6860;SDS011;3469;47.060;15.460;2023-04-24T11:08:37;2.00;;;1.63;;
6860;SDS011;3469;47.060;15.460;2023-04-24T11:11:12;2.23;;;1.90;;
6860;SDS011;3469;47.060;15.460;2023-04-24T11:16:51;1.47;;;1.00;;
6860;SDS011;3469;47.060;15.460;2023-04-24T11:19:21;1.37;;;1.17;;
6860;SDS011;3469;47.060;15.460;2023-04-24T11:21:55;2.00;;;1.30;;
6860;SDS011;3469;47.060;15.460;2023-04-24T11:24:32;1.20;;;1.00;;
6860;SDS011;3469;47.060;15.460;2023-04-24T11:27:13;1.50;;;1.27;;
6860;SDS011;3469;47.060;15.460;2023-04-24T11:29:43;1.50;;;1.13;;
6860;SDS011;3469;47.060;15.460;2023-04-24T11:32:23;2.23;;;1.20;;
6860;SDS011;3469;47.060;15.460;2023-04-24T11:34:54;1.40;;;0.97;;
6860;SDS011;3469;47.060;15.460;2023-04-24T11:37:24;1.07;;;0.83;;
6860;SDS011;3469;47.060;15.460;2023-04-24T11:39:54;1.87;;;1.27;;
6860;SDS011;3469;47.060;15.460;2023-04-24T11:42:26;1.17;;;1.03;;
6860;SDS011;3469;47.060;15.460;2023-04-24T11:44:55;0.97;;;0.73;;
6860;SDS011;3469;47.060;15.460;2023-04-24T11:47:28;1.30;;;1.07;;
6860;SDS011;3469;47.060;15.460;2023-04-24T11:49:58;2.00;;;1.37;;
6860;SDS011;3469;47.060;15.460;2023-04-24T11:52:27;1.83;;;0.70;;
6860;SDS011;3469;47.060;15.460;2023-04-24T11:54:56;1.43;;;0.87;;
6860;SDS011;3469;47.060;15.460;2023-04-24T11:57:27;2.20;;;1.10;;
6860;SDS011;3469;47.060;15.460;2023-04-24T12:00:01;0.80;;;0.50;;
6860;SDS011;3469;47.060;15.460;2023-04-24T12:02:37;1.43;;;0.93;;
6860;SDS011;3469;47.060;15.460;2023-04-24T12:05:06;2.33;;;1.00;;
6860;SDS011;3469;47.060;15.460;2023-04-24T12:07:40;2.63;;;1.07;;
6860;SDS011;3469;47.060;15.460;2023-04-24T12:10:10;2.67;;;1.00;;
6860;SDS011;3469;47.060;15.460;2023-04-24T12:12:40;7.17;;;1.10;;
6860;SDS011;3469;47.060;15.460;2023-04-24T12:15:09;1.13;;;0.63;;
6860;SDS011;3469;47.060;15.460;2023-04-24T12:17:40;0.83;;;0.70;;
6860;SDS011;3469;47.060;15.460;2023-04-24T12:20:10;7.00;;;0.63;;
6860;SDS011;3469;47.060;15.460;2023-04-24T12:22:43;1.50;;;0.83;;
6860;SDS011;3469;47.060;15.460;2023-04-24T12:25:13;1.30;;;0.90;;
6860;SDS011;3469;47.060;15.460;2023-04-24T12:27:44;0.77;;;0.53;;
6860;SDS011;3469;47.060;15.460;2023-04-24T12:30:13;0.80;;;0.50;;
6860;SDS011;3469;47.060;15.460;2023-04-24T12:32:42;1.27;;;0.53;;
6860;SDS011;3469;47.060;15.460;2023-04-24T12:35:12;1.10;;;0.73;;
6860;SDS011;3469;47.060;15.460;2023-04-24T12:37:42;1.13;;;0.70;;
6860;SDS011;3469;47.060;15.460;2023-04-24T12:40:13;1.07;;;0.77;;
6860;SDS011;3469;47.060;15.460;2023-04-24T12:42:44;1.00;;;0.70;;
6860;SDS011;3469;47.060;15.460;2023-04-24T12:45:13;1.10;;;0.63;;
6860;SDS011;3469;47.060;15.460;2023-04-24T12:47:42;1.00;;;0.70;;
6860;SDS011;3469;47.060;15.460;2023-04-24T12:50:11;0.90;;;0.50;;
6860;SDS011;3469;47.060;15.460;2023-04-24T12:52:41;0.90;;;0.60;;
6860;SDS011;3469;47.060;15.460;2023-04-24T12:55:11;0.70;;;0.53;;
6860;SDS011;3469;47.060;15.460;2023-04-24T12:57:39;1.30;;;0.87;;
6860;SDS011;3469;47.060;15.460;2023-04-24T13:00:11;0.80;;;0.53;;
6860;SDS011;3469;47.060;15.460;2023-04-24T13:02:40;0.70;;;0.67;;
6860;SDS011;3469;47.060;15.460;2023-04-24T13:05:08;0.87;;;0.60;;
6860;SDS011;3469;47.060;15.460;2023-04-24T13:07:38;0.93;;;0.60;;
6860;SDS011;3469;47.060;15.460;2023-04-24T13:10:07;1.30;;;0.40;;
6860;SDS011;3469;47.060;15.460;2023-04-24T13:12:36;0.70;;;0.30;;
6860;SDS011;3469;47.060;15.460;2023-04-24T13:15:06;2.23;;;0.50;;
6860;SDS011;3469;47.060;15.460;2023-04-24T13:17:39;0.70;;;0.50;;
6860;SDS011;3469;47.060;15.460;2023-04-24T13:20:07;0.80;;;0.57;;
6860;SDS011;3469;47.060;15.460;2023-04-24T13:22:36;0.90;;;0.50;;
6860;SDS011;3469;47.060;15.460;2023-04-24T13:25:05;1.33;;;0.60;;
6860;SDS011;3469;47.060;15.460;2023-04-24T13:27:34;0.70;;;0.40;;
6860;SDS011;3469;47.060;15.460;2023-04-24T13:30:03;0.87;;;0.50;;
6860;SDS011;3469;47.060;15.460;2023-04-24T13:32:32;1.33;;;0.50;;
6860;SDS011;3469;47.060;15.460;2023-04-24T13:35:04;2.10;;;0.60;;
6860;SDS011;3469;47.060;15.460;2023-04-24T13:37:32;1.20;;;0.70;;
6860;SDS011;3469;47.060;15.460;2023-04-24T13:40:01;1.10;;;0.70;;
6860;SDS011;3469;47.060;15.460;2023-04-24T13:42:32;1.00;;;0.60;;
6860;SDS011;3469;47.060;15.460;2023-04-24T13:45:02;0.90;;;0.60;;
6860;SDS011;3469;47.060;15.460;2023-04-24T13:47:50;1.83;;;0.80;;
6860;SDS011;3469;47.060;15.460;2023-04-24T13:50:20;1.20;;;0.70;;
6860;SDS011;3469;47.060;15.460;2023-04-24T13:52:49;3.07;;;0.87;;
6860;SDS011;3469;47.060;15.460;2023-04-24T13:55:18;1.30;;;0.90;;
6860;SDS011;3469;47.060;15.460;2023-04-24T13:57:51;0.97;;;0.57;;
6860;SDS011;3469;47.060;15.460;2023-04-24T14:00:21;1.07;;;0.50;;
6860;SDS011;3469;47.060;15.460;2023-04-24T14:02:50;0.80;;;0.53;;
6860;SDS011;3469;47.060;15.460;2023-04-24T14:05:21;1.27;;;0.70;;
6860;SDS011;3469;47.060;15.460;2023-04-24T14:07:50;0.80;;;0.60;;
6860;SDS011;3469;47.060;15.460;2023-04-24T14:10:19;1.27;;;0.60;;
6860;SDS011;3469;47.060;15.460;2023-04-24T14:12:47;1.00;;;0.60;;
6860;SDS011;3469;47.060;15.460;2023-04-24T14:15:16;0.90;;;0.50;;
6860;SDS011;3469;47.060;15.460;2023-04-24T14:17:45;0.77;;;0.50;;
6860;SDS011;3469;47.060;15.460;2023-04-24T14:20:13;1.60;;;0.70;;
6860;SDS011;3469;47.060;15.460;2023-04-24T14:22:43;1.20;;;0.70;;
6860;SDS011;3469;47.060;15.460;2023-04-24T14:25:12;1.17;;;0.53;;
6860;SDS011;3469;47.060;15.460;2023-04-24T14:27:40;0.90;;;0.60;;
6860;SDS011;3469;47.060;15.460;2023-04-24T14:30:09;0.93;;;0.60;;
6860;SDS011;3469;47.060;15.460;2023-04-24T14:32:39;1.10;;;0.70;;
6860;SDS011;3469;47.060;15.460;2023-04-24T14:35:08;0.97;;;0.63;;
6860;SDS011;3469;47.060;15.460;2023-04-24T14:37:36;1.00;;;0.80;;
6860;SDS011;3469;47.060;15.460;2023-04-24T14:40:09;1.30;;;0.90;;
6860;SDS011;3469;47.060;15.460;2023-04-24T14:42:58;1.27;;;0.80;;
6860;SDS011;3469;47.060;15.460;2023-04-24T14:45:27;3.83;;;1.10;;
6860;SDS011;3469;47.060;15.460;2023-04-24T14:47:56;1.60;;;0.90;;
6860;SDS011;3469;47.060;15.460;2023-04-24T14:50:25;1.40;;;0.97;;
6860;SDS011;3469;47.060;15.460;2023-04-24T14:52:55;1.20;;;0.90;;
6860;SDS011;3469;47.060;15.460;2023-04-24T14:55:26;1.67;;;0.90;;
6860;SDS011;3469;47.060;15.460;2023-04-24T14:57:55;1.50;;;0.90;;
6860;SDS011;3469;47.060;15.460;2023-04-24T15:00:23;1.17;;;0.80;;
6860;SDS011;3469;47.060;15.460;2023-04-24T15:02:52;1.97;;;0.90;;
6860;SDS011;3469;47.060;15.460;2023-04-24T15:05:22;1.27;;;0.77;;
6860;SDS011;3469;47.060;15.460;2023-04-24T15:07:52;1.67;;;0.90;;
6860;SDS011;3469;47.060;15.460;2023-04-24T15:10:20;1.00;;;0.70;;
6860;SDS011;3469;47.060;15.460;2023-04-24T15:12:51;1.00;;;0.77;;
6860;SDS011;3469;47.060;15.460;2023-04-24T15:15:20;1.03;;;0.67;;
6860;SDS011;3469;47.060;15.460;2023-04-24T15:17:48;1.07;;;0.63;;
6860;SDS011;3469;47.060;15.460;2023-04-24T15:20:17;0.83;;;0.70;;